sensor_id;sensor_type;location;lat;lon;timestamp;P1;durP1;ratioP1;P2;durP2;ratioP2
80225;SDS011;69538;42.000;21.452;2023-07-29T00:02:03;12.65;;;6.45;;
80225;SDS011;69538;42.000;21.452;2023-07-29T00:04:29;12.20;;;6.15;;
80225;SDS011;69538;42.000;21.452;2023-07-29T00:06:56;15.95;;;6.10;;
80225;SDS011;69538;42.000;21.452;2023-07-29T00:09:22;13.00;;;6.43;;
80225;SDS011;69538;42.000;21.452;2023-07-29T00:11:48;12.65;;;5.43;;
80225;SDS011;69538;42.000;21.452;2023-07-29T00:14:14;12.32;;;6.00;;
80225;SDS011;69538;42.000;21.452;2023-07-29T00:16:40;12.73;;;6.07;;
80225;SDS011;69538;42.000;21.452;2023-07-29T00:19:07;15.18;;;5.63;;
80225;SDS011;69538;42.000;21.452;2023-07-29T00:21:34;10.93;;;5.82;;
80225;SDS011;69538;42.000;21.452;2023-07-29T00:24:00;10.98;;;6.00;;
80225;SDS011;69538;42.000;21.452;2023-07-29T00:26:26;13.85;;;6.53;;
80225;SDS011;69538;42.000;21.452;2023-07-29T00:28:54;11.77;;;6.30;;
80225;SDS011;69538;42.000;21.452;2023-07-29T00:31:21;11.00;;;6.25;;
80225;SDS011;69538;42.000;21.452;2023-07-29T00:33:47;12.18;;;6.10;;
80225;SDS011;69538;42.000;21.452;2023-07-29T00:36:13;20.80;;;6.82;;
80225;SDS011;69538;42.000;21.452;2023-07-29T00:38:39;12.40;;;6.63;;
80225;SDS011;69538;42.000;21.452;2023-07-29T00:41:05;12.93;;;7.07;;
80225;SDS011;69538;42.000;21.452;2023-07-29T00:43:32;17.48;;;8.07;;
80225;SDS011;69538;42.000;21.452;2023-07-29T00:45:59;17.25;;;8.35;;
80225;SDS011;69538;42.000;21.452;2023-07-29T00:48:25;16.42;;;8.35;;
80225;SDS011;69538;42.000;21.452;2023-07-29T00:50:52;16.52;;;8.70;;
80225;SDS011;69538;42.000;21.452;2023-07-29T00:53:18;18.08;;;8.95;;
80225;SDS011;69538;42.000;21.452;2023-07-29T00:55:44;16.98;;;9.75;;
80225;SDS011;69538;42.000;21.452;2023-07-29T00:58:11;24.52;;;11.95;;
80225;SDS011;69538;42.000;21.452;2023-07-29T01:00:37;22.65;;;12.48;;
80225;SDS011;69538;42.000;21.452;2023-07-29T01:03:04;24.30;;;12.52;;
80225;SDS011;69538;42.000;21.452;2023-07-29T01:05:32;29.25;;;15.13;;
80225;SDS011;69538;42.000;21.452;2023-07-29T01:08:14;31.38;;;16.70;;
80225;SDS011;69538;42.000;21.452;2023-07-29T01:13:13;26.55;;;15.73;;
80225;SDS011;69538;42.000;21.452;2023-07-29T01:15:43;31.63;;;16.13;;
80225;SDS011;69538;42.000;21.452;2023-07-29T01:18:14;29.38;;;15.57;;
80225;SDS011;69538;42.000;21.452;2023-07-29T01:20:42;30.38;;;14.48;;
80225;SDS011;69538;42.000;21.452;2023-07-29T01:23:09;28.42;;;14.15;;
80225;SDS011;69538;42.000;21.452;2023-07-29T01:25:35;22.42;;;13.55;;
80225;SDS011;69538;42.000;21.452;2023-07-29T01:28:01;24.77;;;12.55;;
80225;SDS011;69538;42.000;21.452;2023-07-29T01:30:33;25.35;;;12.05;;
80225;SDS011;69538;42.000;21.452;2023-07-29T01:33:13;26.80;;;12.70;;
80225;SDS011;69538;42.000;21.452;2023-07-29T01:36:01;25.52;;;12.27;;
80225;SDS011;69538;42.000;21.452;2023-07-29T01:38:35;21.10;;;12.02;;
80225;SDS011;69538;42.000;21.452;2023-07-29T01:41:02;25.02;;;13.05;;
80225;SDS011;69538;42.000;21.452;2023-07-29T01:43:29;22.90;;;13.57;;
80225;SDS011;69538;42.000;21.452;2023-07-29T01:45:55;25.15;;;13.93;;
80225;SDS011;69538;42.000;21.452;2023-07-29T01:48:22;25.58;;;13.20;;
80225;SDS011;69538;42.000;21.452;2023-07-29T01:50:48;23.17;;;12.25;;
80225;SDS011;69538;42.000;21.452;2023-07-29T01:53:14;24.75;;;12.60;;
80225;SDS011;69538;42.000;21.452;2023-07-29T01:55:41;23.75;;;12.30;;
80225;SDS011;69538;42.000;21.452;2023-07-29T01:58:07;27.42;;;12.73;;
80225;SDS011;69538;42.000;21.452;2023-07-29T02:00:33;23.25;;;12.10;;
80225;SDS011;69538;42.000;21.452;2023-07-29T02:03:00;21.30;;;11.38;;
80225;SDS011;69538;42.000;21.452;2023-07-29T02:05:26;21.45;;;11.52;;
80225;SDS011;69538;42.000;21.452;2023-07-29T02:07:52;25.75;;;10.65;;
80225;SDS011;69538;42.000;21.452;2023-07-29T02:10:18;18.05;;;9.98;;
80225;SDS011;69538;42.000;21.452;2023-07-29T02:12:44;16.13;;;9.55;;
80225;SDS011;69538;42.000;21.452;2023-07-29T02:15:10;18.33;;;8.65;;
80225;SDS011;69538;42.000;21.452;2023-07-29T02:17:37;15.38;;;8.45;;
80225;SDS011;69538;42.000;21.452;2023-07-29T02:20:03;12.18;;;7.35;;
80225;SDS011;69538;42.000;21.452;2023-07-29T02:22:30;17.17;;;8.35;;
80225;SDS011;69538;42.000;21.452;2023-07-29T02:24:56;14.93;;;8.00;;
80225;SDS011;69538;42.000;21.452;2023-07-29T02:27:23;14.85;;;7.13;;
80225;SDS011;69538;42.000;21.452;2023-07-29T02:29:52;14.90;;;8.02;;
80225;SDS011;69538;42.000;21.452;2023-07-29T02:32:18;13.48;;;8.20;;
80225;SDS011;69538;42.000;21.452;2023-07-29T02:34:44;16.33;;;7.15;;
80225;SDS011;69538;42.000;21.452;2023-07-29T02:37:10;15.10;;;7.53;;
80225;SDS011;69538;42.000;21.452;2023-07-29T02:39:37;11.93;;;6.30;;
80225;SDS011;69538;42.000;21.452;2023-07-29T02:42:03;10.38;;;6.10;;
80225;SDS011;69538;42.000;21.452;2023-07-29T02:44:29;13.18;;;7.13;;
80225;SDS011;69538;42.000;21.452;2023-07-29T02:46:56;14.77;;;7.10;;
80225;SDS011;69538;42.000;21.452;2023-07-29T02:49:22;10.88;;;6.05;;
80225;SDS011;69538;42.000;21.452;2023-07-29T02:51:49;12.57;;;6.18;;
80225;SDS011;69538;42.000;21.452;2023-07-29T02:54:15;11.07;;;5.70;;
80225;SDS011;69538;42.000;21.452;2023-07-29T02:56:41;10.27;;;5.80;;
80225;SDS011;69538;42.000;21.452;2023-07-29T02:59:07;10.60;;;5.65;;
80225;SDS011;69538;42.000;21.452;2023-07-29T03:01:33;9.63;;;5.45;;
80225;SDS011;69538;42.000;21.452;2023-07-29T03:04:00;9.85;;;5.38;;
80225;SDS011;69538;42.000;21.452;2023-07-29T03:06:26;12.23;;;5.80;;
80225;SDS011;69538;42.000;21.452;2023-07-29T03:08:52;10.73;;;4.90;;
80225;SDS011;69538;42.000;21.452;2023-07-29T03:11:18;10.13;;;4.93;;
80225;SDS011;69538;42.000;21.452;2023-07-29T03:13:45;8.05;;;4.80;;
80225;SDS011;69538;42.000;21.452;2023-07-29T03:16:12;9.32;;;5.13;;
80225;SDS011;69538;42.000;21.452;2023-07-29T03:18:41;8.98;;;5.10;;
80225;SDS011;69538;42.000;21.452;2023-07-29T03:21:08;7.60;;;4.72;;
80225;SDS011;69538;42.000;21.452;2023-07-29T03:23:35;9.10;;;4.80;;
80225;SDS011;69538;42.000;21.452;2023-07-29T03:26:02;10.38;;;5.15;;
80225;SDS011;69538;42.000;21.452;2023-07-29T03:28:35;11.38;;;4.82;;
80225;SDS011;69538;42.000;21.452;2023-07-29T03:31:01;8.45;;;5.18;;
80225;SDS011;69538;42.000;21.452;2023-07-29T03:33:28;7.63;;;4.47;;
80225;SDS011;69538;42.000;21.452;2023-07-29T03:35:54;8.85;;;4.55;;
80225;SDS011;69538;42.000;21.452;2023-07-29T03:38:20;10.23;;;5.32;;
80225;SDS011;69538;42.000;21.452;2023-07-29T03:40:47;10.23;;;4.75;;
80225;SDS011;69538;42.000;21.452;2023-07-29T03:43:13;8.10;;;4.82;;
80225;SDS011;69538;42.000;21.452;2023-07-29T03:45:39;8.60;;;5.28;;
80225;SDS011;69538;42.000;21.452;2023-07-29T03:48:05;7.75;;;4.65;;
80225;SDS011;69538;42.000;21.452;2023-07-29T03:50:33;10.68;;;5.13;;
80225;SDS011;69538;42.000;21.452;2023-07-29T03:53:00;8.75;;;4.95;;
80225;SDS011;69538;42.000;21.452;2023-07-29T03:55:26;12.00;;;5.47;;
80225;SDS011;69538;42.000;21.452;2023-07-29T03:57:54;7.82;;;5.05;;
80225;SDS011;69538;42.000;21.452;2023-07-29T04:00:20;11.13;;;5.60;;
80225;SDS011;69538;42.000;21.452;2023-07-29T04:02:46;11.77;;;4.93;;
80225;SDS011;69538;42.000;21.452;2023-07-29T04:05:13;9.70;;;5.00;;
80225;SDS011;69538;42.000;21.452;2023-07-29T04:07:40;10.27;;;5.57;;
80225;SDS011;69538;42.000;21.452;2023-07-29T04:10:06;10.27;;;5.82;;
80225;SDS011;69538;42.000;21.452;2023-07-29T04:12:33;9.13;;;5.60;;
80225;SDS011;69538;42.000;21.452;2023-07-29T04:14:59;11.52;;;5.35;;
80225;SDS011;69538;42.000;21.452;2023-07-29T04:17:25;19.98;;;6.63;;
80225;SDS011;69538;42.000;21.452;2023-07-29T04:19:51;13.82;;;6.93;;
80225;SDS011;69538;42.000;21.452;2023-07-29T04:22:17;11.27;;;6.38;;
80225;SDS011;69538;42.000;21.452;2023-07-29T04:24:43;15.43;;;7.50;;
80225;SDS011;69538;42.000;21.452;2023-07-29T04:27:09;16.38;;;7.75;;
80225;SDS011;69538;42.000;21.452;2023-07-29T04:29:36;15.45;;;7.43;;
80225;SDS011;69538;42.000;21.452;2023-07-29T04:32:02;13.70;;;7.07;;
80225;SDS011;69538;42.000;21.452;2023-07-29T04:34:29;15.00;;;7.15;;
80225;SDS011;69538;42.000;21.452;2023-07-29T04:36:55;13.77;;;7.10;;
80225;SDS011;69538;42.000;21.452;2023-07-29T04:39:21;17.42;;;7.78;;
80225;SDS011;69538;42.000;21.452;2023-07-29T04:41:47;21.83;;;7.70;;
80225;SDS011;69538;42.000;21.452;2023-07-29T04:44:13;14.00;;;7.60;;
80225;SDS011;69538;42.000;21.452;2023-07-29T04:46:39;12.57;;;7.15;;
80225;SDS011;69538;42.000;21.452;2023-07-29T04:49:06;13.05;;;7.13;;
80225;SDS011;69538;42.000;21.452;2023-07-29T04:51:32;15.45;;;6.95;;
80225;SDS011;69538;42.000;21.452;2023-07-29T04:53:58;12.55;;;7.50;;
80225;SDS011;69538;42.000;21.452;2023-07-29T04:56:24;14.07;;;7.50;;
80225;SDS011;69538;42.000;21.452;2023-07-29T04:58:51;11.32;;;7.30;;
80225;SDS011;69538;42.000;21.452;2023-07-29T05:01:18;14.65;;;7.72;;
80225;SDS011;69538;42.000;21.452;2023-07-29T05:03:44;19.05;;;7.57;;
80225;SDS011;69538;42.000;21.452;2023-07-29T05:06:10;20.25;;;8.00;;
80225;SDS011;69538;42.000;21.452;2023-07-29T05:08:37;18.85;;;8.00;;
80225;SDS011;69538;42.000;21.452;2023-07-29T05:11:03;16.33;;;8.18;;
80225;SDS011;69538;42.000;21.452;2023-07-29T05:13:29;19.85;;;8.50;;
80225;SDS011;69538;42.000;21.452;2023-07-29T05:15:55;18.00;;;7.85;;
80225;SDS011;69538;42.000;21.452;2023-07-29T05:18:22;14.43;;;7.03;;
80225;SDS011;69538;42.000;21.452;2023-07-29T05:20:48;20.50;;;8.30;;
80225;SDS011;69538;42.000;21.452;2023-07-29T05:23:15;17.35;;;8.18;;
80225;SDS011;69538;42.000;21.452;2023-07-29T05:25:41;18.33;;;8.85;;
80225;SDS011;69538;42.000;21.452;2023-07-29T05:28:07;17.73;;;8.38;;
80225;SDS011;69538;42.000;21.452;2023-07-29T05:30:33;21.55;;;8.77;;
80225;SDS011;69538;42.000;21.452;2023-07-29T05:33:02;17.42;;;7.40;;
80225;SDS011;69538;42.000;21.452;2023-07-29T05:35:29;16.42;;;8.02;;
80225;SDS011;69538;42.000;21.452;2023-07-29T05:37:55;17.83;;;8.65;;
80225;SDS011;69538;42.000;21.452;2023-07-29T05:40:22;16.67;;;8.27;;
80225;SDS011;69538;42.000;21.452;2023-07-29T05:42:49;14.23;;;7.03;;
80225;SDS011;69538;42.000;21.452;2023-07-29T05:45:15;19.00;;;7.97;;
80225;SDS011;69538;42.000;21.452;2023-07-29T05:47:41;12.43;;;7.30;;
80225;SDS011;69538;42.000;21.452;2023-07-29T05:50:08;18.00;;;8.38;;
80225;SDS011;69538;42.000;21.452;2023-07-29T05:52:43;18.92;;;7.75;;
80225;SDS011;69538;42.000;21.452;2023-07-29T05:55:10;16.27;;;7.88;;
80225;SDS011;69538;42.000;21.452;2023-07-29T05:57:36;15.65;;;8.32;;
80225;SDS011;69538;42.000;21.452;2023-07-29T06:00:03;17.05;;;8.05;;
80225;SDS011;69538;42.000;21.452;2023-07-29T06:02:29;16.88;;;7.65;;
80225;SDS011;69538;42.000;21.452;2023-07-29T06:04:55;15.63;;;7.63;;
80225;SDS011;69538;42.000;21.452;2023-07-29T06:07:21;13.27;;;7.60;;
80225;SDS011;69538;42.000;21.452;2023-07-29T06:09:47;16.50;;;7.40;;
80225;SDS011;69538;42.000;21.452;2023-07-29T06:12:14;15.68;;;7.03;;
80225;SDS011;69538;42.000;21.452;2023-07-29T06:14:40;14.40;;;7.63;;
80225;SDS011;69538;42.000;21.452;2023-07-29T06:17:06;13.10;;;6.40;;
80225;SDS011;69538;42.000;21.452;2023-07-29T06:19:32;14.60;;;7.00;;
80225;SDS011;69538;42.000;21.452;2023-07-29T06:21:58;16.23;;;7.50;;
80225;SDS011;69538;42.000;21.452;2023-07-29T06:24:26;14.23;;;6.80;;
80225;SDS011;69538;42.000;21.452;2023-07-29T06:26:55;13.40;;;7.43;;
80225;SDS011;69538;42.000;21.452;2023-07-29T06:29:21;13.55;;;6.97;;
80225;SDS011;69538;42.000;21.452;2023-07-29T06:31:47;18.48;;;7.10;;
80225;SDS011;69538;42.000;21.452;2023-07-29T06:34:14;16.23;;;7.85;;
80225;SDS011;69538;42.000;21.452;2023-07-29T06:36:40;13.85;;;7.43;;
80225;SDS011;69538;42.000;21.452;2023-07-29T06:39:09;15.57;;;6.80;;
80225;SDS011;69538;42.000;21.452;2023-07-29T06:41:36;16.80;;;7.35;;
80225;SDS011;69538;42.000;21.452;2023-07-29T06:44:02;18.25;;;7.78;;
80225;SDS011;69538;42.000;21.452;2023-07-29T06:46:28;17.17;;;7.47;;
80225;SDS011;69538;42.000;21.452;2023-07-29T06:48:54;24.33;;;8.43;;
80225;SDS011;69538;42.000;21.452;2023-07-29T06:51:20;18.08;;;7.65;;
80225;SDS011;69538;42.000;21.452;2023-07-29T06:53:46;11.90;;;6.72;;
80225;SDS011;69538;42.000;21.452;2023-07-29T06:56:13;14.70;;;6.97;;
80225;SDS011;69538;42.000;21.452;2023-07-29T06:58:42;16.83;;;6.78;;
80225;SDS011;69538;42.000;21.452;2023-07-29T07:01:08;15.15;;;7.15;;
80225;SDS011;69538;42.000;21.452;2023-07-29T07:03:34;14.90;;;6.95;;
80225;SDS011;69538;42.000;21.452;2023-07-29T07:06:00;16.10;;;6.82;;
80225;SDS011;69538;42.000;21.452;2023-07-29T07:08:29;11.00;;;5.78;;
80225;SDS011;69538;42.000;21.452;2023-07-29T07:10:56;11.45;;;6.03;;
80225;SDS011;69538;42.000;21.452;2023-07-29T07:13:28;15.07;;;6.65;;
80225;SDS011;69538;42.000;21.452;2023-07-29T07:16:15;13.55;;;6.47;;
80225;SDS011;69538;42.000;21.452;2023-07-29T07:18:41;12.73;;;5.60;;
80225;SDS011;69538;42.000;21.452;2023-07-29T07:21:07;11.93;;;6.00;;
80225;SDS011;69538;42.000;21.452;2023-07-29T07:23:33;15.00;;;6.28;;
80225;SDS011;69538;42.000;21.452;2023-07-29T07:25:59;15.43;;;6.25;;
80225;SDS011;69538;42.000;21.452;2023-07-29T07:28:25;14.88;;;7.22;;
80225;SDS011;69538;42.000;21.452;2023-07-29T07:30:52;13.52;;;6.55;;
80225;SDS011;69538;42.000;21.452;2023-07-29T07:33:18;17.38;;;7.93;;
80225;SDS011;69538;42.000;21.452;2023-07-29T07:35:44;14.20;;;7.63;;
80225;SDS011;69538;42.000;21.452;2023-07-29T07:38:10;14.07;;;6.85;;
80225;SDS011;69538;42.000;21.452;2023-07-29T07:40:36;10.13;;;6.00;;
80225;SDS011;69538;42.000;21.452;2023-07-29T07:43:02;9.95;;;5.07;;
80225;SDS011;69538;42.000;21.452;2023-07-29T07:45:28;11.38;;;5.28;;
80225;SDS011;69538;42.000;21.452;2023-07-29T07:47:55;10.88;;;5.53;;
80225;SDS011;69538;42.000;21.452;2023-07-29T07:50:22;10.77;;;5.70;;
80225;SDS011;69538;42.000;21.452;2023-07-29T07:52:49;12.10;;;5.78;;
80225;SDS011;69538;42.000;21.452;2023-07-29T07:55:15;15.05;;;5.72;;
80225;SDS011;69538;42.000;21.452;2023-07-29T07:57:41;9.48;;;5.22;;
80225;SDS011;69538;42.000;21.452;2023-07-29T08:00:08;9.70;;;5.47;;
80225;SDS011;69538;42.000;21.452;2023-07-29T08:02:34;13.23;;;5.65;;
80225;SDS011;69538;42.000;21.452;2023-07-29T08:05:01;14.80;;;5.65;;
80225;SDS011;69538;42.000;21.452;2023-07-29T08:07:27;12.82;;;5.53;;
80225;SDS011;69538;42.000;21.452;2023-07-29T08:09:53;11.10;;;5.43;;
80225;SDS011;69538;42.000;21.452;2023-07-29T08:12:19;10.60;;;5.28;;
80225;SDS011;69538;42.000;21.452;2023-07-29T08:14:45;11.68;;;5.55;;
80225;SDS011;69538;42.000;21.452;2023-07-29T08:17:12;9.68;;;4.80;;
80225;SDS011;69538;42.000;21.452;2023-07-29T08:19:38;8.43;;;4.72;;
80225;SDS011;69538;42.000;21.452;2023-07-29T08:22:04;10.13;;;5.10;;
80225;SDS011;69538;42.000;21.452;2023-07-29T08:24:30;13.23;;;5.85;;
80225;SDS011;69538;42.000;21.452;2023-07-29T08:26:57;11.95;;;5.03;;
80225;SDS011;69538;42.000;21.452;2023-07-29T08:29:23;8.23;;;4.63;;
80225;SDS011;69538;42.000;21.452;2023-07-29T08:31:49;9.85;;;4.18;;
80225;SDS011;69538;42.000;21.452;2023-07-29T08:34:16;8.35;;;4.55;;
80225;SDS011;69538;42.000;21.452;2023-07-29T08:36:43;12.38;;;5.13;;
80225;SDS011;69538;42.000;21.452;2023-07-29T08:39:09;11.13;;;4.80;;
80225;SDS011;69538;42.000;21.452;2023-07-29T08:42:17;9.52;;;5.10;;
80225;SDS011;69538;42.000;21.452;2023-07-29T08:44:30;8.05;;;4.40;;
80225;SDS011;69538;42.000;21.452;2023-07-29T08:46:56;8.95;;;4.88;;
80225;SDS011;69538;42.000;21.452;2023-07-29T08:49:22;7.72;;;4.43;;
80225;SDS011;69538;42.000;21.452;2023-07-29T08:51:49;8.60;;;4.22;;
80225;SDS011;69538;42.000;21.452;2023-07-29T08:54:16;11.15;;;5.13;;
80225;SDS011;69538;42.000;21.452;2023-07-29T08:56:42;10.63;;;4.57;;
80225;SDS011;69538;42.000;21.452;2023-07-29T08:59:09;8.38;;;4.38;;
80225;SDS011;69538;42.000;21.452;2023-07-29T09:01:39;10.32;;;4.15;;
80225;SDS011;69538;42.000;21.452;2023-07-29T09:04:05;8.75;;;4.47;;
80225;SDS011;69538;42.000;21.452;2023-07-29T09:06:31;10.63;;;5.07;;
80225;SDS011;69538;42.000;21.452;2023-07-29T09:08:58;9.75;;;4.82;;
80225;SDS011;69538;42.000;21.452;2023-07-29T09:11:24;9.27;;;4.75;;
80225;SDS011;69538;42.000;21.452;2023-07-29T09:13:50;9.52;;;4.82;;
80225;SDS011;69538;42.000;21.452;2023-07-29T09:16:18;13.02;;;4.68;;
80225;SDS011;69538;42.000;21.452;2023-07-29T09:18:45;9.63;;;4.88;;
80225;SDS011;69538;42.000;21.452;2023-07-29T09:21:13;9.93;;;4.35;;
80225;SDS011;69538;42.000;21.452;2023-07-29T09:23:41;8.73;;;4.28;;
80225;SDS011;69538;42.000;21.452;2023-07-29T09:26:07;8.23;;;4.22;;
80225;SDS011;69538;42.000;21.452;2023-07-29T09:28:34;10.05;;;4.38;;
80225;SDS011;69538;42.000;21.452;2023-07-29T09:31:01;7.70;;;4.20;;
80225;SDS011;69538;42.000;21.452;2023-07-29T09:33:28;10.23;;;4.18;;
80225;SDS011;69538;42.000;21.452;2023-07-29T09:35:54;7.82;;;4.43;;
80225;SDS011;69538;42.000;21.452;2023-07-29T09:38:25;7.93;;;4.40;;
80225;SDS011;69538;42.000;21.452;2023-07-29T09:40:54;11.45;;;4.28;;
80225;SDS011;69538;42.000;21.452;2023-07-29T09:43:20;10.75;;;4.75;;
80225;SDS011;69538;42.000;21.452;2023-07-29T09:45:51;9.18;;;4.53;;
80225;SDS011;69538;42.000;21.452;2023-07-29T09:48:19;11.15;;;5.05;;
80225;SDS011;69538;42.000;21.452;2023-07-29T09:50:48;7.60;;;4.60;;
80225;SDS011;69538;42.000;21.452;2023-07-29T09:53:14;11.02;;;4.80;;
80225;SDS011;69538;42.000;21.452;2023-07-29T09:55:40;8.52;;;3.88;;
80225;SDS011;69538;42.000;21.452;2023-07-29T09:58:11;11.13;;;4.93;;
80225;SDS011;69538;42.000;21.452;2023-07-29T10:00:38;10.55;;;4.75;;
80225;SDS011;69538;42.000;21.452;2023-07-29T10:03:05;9.02;;;4.72;;
80225;SDS011;69538;42.000;21.452;2023-07-29T10:05:32;9.60;;;4.65;;
80225;SDS011;69538;42.000;21.452;2023-07-29T10:08:04;7.32;;;4.93;;
80225;SDS011;69538;42.000;21.452;2023-07-29T10:10:30;7.78;;;5.18;;
80225;SDS011;69538;42.000;21.452;2023-07-29T10:12:56;9.13;;;5.22;;
80225;SDS011;69538;42.000;21.452;2023-07-29T10:15:24;8.10;;;4.80;;
80225;SDS011;69538;42.000;21.452;2023-07-29T10:17:51;14.50;;;5.03;;
80225;SDS011;69538;42.000;21.452;2023-07-29T10:20:17;11.63;;;5.10;;
80225;SDS011;69538;42.000;21.452;2023-07-29T10:22:45;10.43;;;5.60;;
80225;SDS011;69538;42.000;21.452;2023-07-29T10:25:16;8.50;;;4.50;;
80225;SDS011;69538;42.000;21.452;2023-07-29T10:27:44;9.35;;;4.80;;
80225;SDS011;69538;42.000;21.452;2023-07-29T10:30:13;6.72;;;3.58;;
80225;SDS011;69538;42.000;21.452;2023-07-29T10:32:41;5.47;;;3.30;;
80225;SDS011;69538;42.000;21.452;2023-07-29T10:35:09;8.77;;;4.07;;
80225;SDS011;69538;42.000;21.452;2023-07-29T10:37:35;8.30;;;4.03;;
80225;SDS011;69538;42.000;21.452;2023-07-29T10:40:03;7.20;;;3.97;;
80225;SDS011;69538;42.000;21.452;2023-07-29T10:42:31;5.82;;;3.72;;
80225;SDS011;69538;42.000;21.452;2023-07-29T10:44:57;6.25;;;3.55;;
80225;SDS011;69538;42.000;21.452;2023-07-29T10:47:24;7.45;;;4.38;;
80225;SDS011;69538;42.000;21.452;2023-07-29T10:49:54;7.45;;;3.60;;
80225;SDS011;69538;42.000;21.452;2023-07-29T10:52:28;8.35;;;4.10;;
80225;SDS011;69538;42.000;21.452;2023-07-29T10:54:54;8.40;;;3.97;;
80225;SDS011;69538;42.000;21.452;2023-07-29T10:57:39;8.65;;;3.67;;
80225;SDS011;69538;42.000;21.452;2023-07-29T11:00:08;6.43;;;3.55;;
80225;SDS011;69538;42.000;21.452;2023-07-29T11:02:36;5.63;;;3.33;;
80225;SDS011;69538;42.000;21.452;2023-07-29T11:05:05;6.95;;;3.80;;
80225;SDS011;69538;42.000;21.452;2023-07-29T11:07:42;9.07;;;4.10;;
80225;SDS011;69538;42.000;21.452;2023-07-29T11:10:09;5.40;;;3.30;;
80225;SDS011;69538;42.000;21.452;2023-07-29T11:12:39;7.07;;;3.72;;
80225;SDS011;69538;42.000;21.452;2023-07-29T11:17:44;7.82;;;4.25;;
80225;SDS011;69538;42.000;21.452;2023-07-29T11:20:11;8.85;;;4.53;;
80225;SDS011;69538;42.000;21.452;2023-07-29T11:22:38;7.07;;;3.50;;
80225;SDS011;69538;42.000;21.452;2023-07-29T11:25:05;5.45;;;3.30;;
80225;SDS011;69538;42.000;21.452;2023-07-29T11:27:32;5.05;;;3.40;;
80225;SDS011;69538;42.000;21.452;2023-07-29T11:29:59;6.57;;;3.50;;
80225;SDS011;69538;42.000;21.452;2023-07-29T11:32:25;5.07;;;3.15;;
80225;SDS011;69538;42.000;21.452;2023-07-29T11:34:52;6.47;;;3.88;;
80225;SDS011;69538;42.000;21.452;2023-07-29T11:37:18;5.45;;;3.38;;
80225;SDS011;69538;42.000;21.452;2023-07-29T11:39:46;5.45;;;3.55;;
80225;SDS011;69538;42.000;21.452;2023-07-29T11:42:13;8.43;;;4.38;;
80225;SDS011;69538;42.000;21.452;2023-07-29T11:44:40;5.75;;;3.28;;
80225;SDS011;69538;42.000;21.452;2023-07-29T11:47:10;7.65;;;3.35;;
80225;SDS011;69538;42.000;21.452;2023-07-29T11:49:37;5.63;;;3.30;;
80225;SDS011;69538;42.000;21.452;2023-07-29T11:52:05;8.27;;;2.95;;
80225;SDS011;69538;42.000;21.452;2023-07-29T11:54:31;8.60;;;3.78;;
80225;SDS011;69538;42.000;21.452;2023-07-29T11:56:58;8.15;;;4.30;;
80225;SDS011;69538;42.000;21.452;2023-07-29T11:59:24;5.47;;;3.30;;
80225;SDS011;69538;42.000;21.452;2023-07-29T12:01:50;5.75;;;3.28;;
80225;SDS011;69538;42.000;21.452;2023-07-29T12:04:17;5.85;;;3.70;;
80225;SDS011;69538;42.000;21.452;2023-07-29T12:06:43;5.20;;;3.30;;
80225;SDS011;69538;42.000;21.452;2023-07-29T12:09:10;5.20;;;3.05;;
80225;SDS011;69538;42.000;21.452;2023-07-29T12:11:38;8.23;;;3.55;;
80225;SDS011;69538;42.000;21.452;2023-07-29T12:14:07;8.00;;;3.67;;
80225;SDS011;69538;42.000;21.452;2023-07-29T12:16:42;5.80;;;3.33;;
80225;SDS011;69538;42.000;21.452;2023-07-29T12:19:11;13.50;;;4.85;;
80225;SDS011;69538;42.000;21.452;2023-07-29T12:21:38;6.00;;;3.47;;
80225;SDS011;69538;42.000;21.452;2023-07-29T12:24:05;6.13;;;4.28;;
80225;SDS011;69538;42.000;21.452;2023-07-29T12:26:31;7.15;;;3.78;;
80225;SDS011;69538;42.000;21.452;2023-07-29T12:28:57;7.45;;;3.88;;
80225;SDS011;69538;42.000;21.452;2023-07-29T12:31:32;7.68;;;4.00;;
80225;SDS011;69538;42.000;21.452;2023-07-29T12:33:58;6.70;;;3.85;;
80225;SDS011;69538;42.000;21.452;2023-07-29T12:36:43;9.68;;;4.10;;
80225;SDS011;69538;42.000;21.452;2023-07-29T12:39:22;7.82;;;3.75;;
80225;SDS011;69538;42.000;21.452;2023-07-29T12:41:49;4.88;;;3.42;;
80225;SDS011;69538;42.000;21.452;2023-07-29T12:44:16;5.40;;;3.75;;
80225;SDS011;69538;42.000;21.452;2023-07-29T12:46:42;6.57;;;4.07;;
80225;SDS011;69538;42.000;21.452;2023-07-29T12:49:08;5.03;;;2.97;;
80225;SDS011;69538;42.000;21.452;2023-07-29T12:51:34;8.18;;;4.28;;
80225;SDS011;69538;42.000;21.452;2023-07-29T12:54:01;11.50;;;3.90;;
80225;SDS011;69538;42.000;21.452;2023-07-29T12:56:28;10.82;;;3.97;;
80225;SDS011;69538;42.000;21.452;2023-07-29T12:58:56;11.35;;;5.80;;
80225;SDS011;69538;42.000;21.452;2023-07-29T13:01:23;13.35;;;4.63;;
80225;SDS011;69538;42.000;21.452;2023-07-29T13:03:49;7.32;;;3.95;;
80225;SDS011;69538;42.000;21.452;2023-07-29T13:06:15;8.50;;;3.67;;
80225;SDS011;69538;42.000;21.452;2023-07-29T13:08:41;5.75;;;3.88;;
80225;SDS011;69538;42.000;21.452;2023-07-29T13:11:08;6.22;;;3.72;;
80225;SDS011;69538;42.000;21.452;2023-07-29T13:13:34;6.00;;;3.95;;
80225;SDS011;69538;42.000;21.452;2023-07-29T13:16:00;10.43;;;4.78;;
80225;SDS011;69538;42.000;21.452;2023-07-29T13:18:26;7.82;;;3.60;;
80225;SDS011;69538;42.000;21.452;2023-07-29T13:20:53;6.88;;;3.47;;
80225;SDS011;69538;42.000;21.452;2023-07-29T13:23:19;9.45;;;4.85;;
80225;SDS011;69538;42.000;21.452;2023-07-29T13:25:45;5.47;;;3.55;;
80225;SDS011;69538;42.000;21.452;2023-07-29T13:28:11;7.80;;;4.00;;
80225;SDS011;69538;42.000;21.452;2023-07-29T13:30:41;7.13;;;4.07;;
80225;SDS011;69538;42.000;21.452;2023-07-29T13:33:07;6.88;;;3.78;;
80225;SDS011;69538;42.000;21.452;2023-07-29T13:35:33;7.57;;;3.75;;
80225;SDS011;69538;42.000;21.452;2023-07-29T13:38:00;5.70;;;3.47;;
80225;SDS011;69538;42.000;21.452;2023-07-29T13:40:26;5.88;;;3.55;;
80225;SDS011;69538;42.000;21.452;2023-07-29T13:42:53;6.50;;;4.07;;
80225;SDS011;69538;42.000;21.452;2023-07-29T13:45:19;6.28;;;3.67;;
80225;SDS011;69538;42.000;21.452;2023-07-29T13:47:45;6.68;;;3.47;;
80225;SDS011;69538;42.000;21.452;2023-07-29T13:50:11;6.97;;;3.67;;
80225;SDS011;69538;42.000;21.452;2023-07-29T13:52:38;7.95;;;3.72;;
80225;SDS011;69538;42.000;21.452;2023-07-29T13:55:04;6.68;;;3.70;;
80225;SDS011;69538;42.000;21.452;2023-07-29T13:57:31;6.07;;;3.80;;
80225;SDS011;69538;42.000;21.452;2023-07-29T13:59:57;6.78;;;4.20;;
80225;SDS011;69538;42.000;21.452;2023-07-29T14:02:23;9.50;;;3.80;;
80225;SDS011;69538;42.000;21.452;2023-07-29T14:04:51;6.50;;;3.80;;
80225;SDS011;69538;42.000;21.452;2023-07-29T14:07:17;7.35;;;4.18;;
80225;SDS011;69538;42.000;21.452;2023-07-29T14:09:43;7.28;;;4.25;;
80225;SDS011;69538;42.000;21.452;2023-07-29T14:12:09;8.98;;;4.07;;
80225;SDS011;69538;42.000;21.452;2023-07-29T14:14:37;6.10;;;4.20;;
80225;SDS011;69538;42.000;21.452;2023-07-29T14:17:04;6.70;;;4.03;;
80225;SDS011;69538;42.000;21.452;2023-07-29T14:19:33;7.05;;;3.67;;
80225;SDS011;69538;42.000;21.452;2023-07-29T14:22:00;6.03;;;3.80;;
80225;SDS011;69538;42.000;21.452;2023-07-29T14:24:26;8.50;;;3.65;;
80225;SDS011;69538;42.000;21.452;2023-07-29T14:26:52;8.00;;;4.15;;
80225;SDS011;69538;42.000;21.452;2023-07-29T14:29:18;6.18;;;3.67;;
80225;SDS011;69538;42.000;21.452;2023-07-29T14:31:45;6.18;;;4.07;;